Flight Track Log - Related Links

Times and Time Zones

All times are in EDT time to prevent confusion due to time zone crossing. See the UPS618 flight status page for this flight to view local times or setup timezone preferences in your user account.


Time Position Orientation Groundspeed Altitude Reporting Facility
EDT Latitude Longitude Course Direction KTS MPH feet Rate Location/Type
Fri 06:16:42 AM 40.7140 -89.7430 343° North 238 274 4,700  Level FlightAware ADS-B
Fri 06:17:08 AM 40.7440 -89.7530 346° North 269 310 6,300 4,174 Climbing FlightAware ADS-B
Fri 06:17:28 AM 40.7680 -89.7620 344° North 274 315 7,900 4,950 Climbing FlightAware ADS-B
Fri 06:17:48 AM 40.7930 -89.7710 345° North 277 319 9,600 4,596 Climbing FlightAware ADS-B
Fri 06:18:15 AM 40.8260 -89.7810 347° North 293 337 11,500 3,382 Climbing FlightAware ADS-B
Fri 06:18:43 AM 40.8670 -89.7650 16° North 347 399 12,700 2,769 Climbing FlightAware ADS-B
Fri 06:19:20 AM 40.9250 -89.7300 25° Northeast 372 428 14,500 1,971 Climbing FlightAware ADS-B
Fri 06:19:53 AM 40.9750 -89.6990 25° Northeast 373 429 15,000 441 Climbing FlightAware ADS-B
Fri 06:20:28 AM 41.0310 -89.6660 24° Northeast 368 423 15,000  Level FlightAware ADS-B
Fri 06:21:05 AM 41.0880 -89.6320 24° Northeast 367 422 15,000  Level FlightAware ADS-B
Fri 06:21:40 AM 41.1430 -89.5990 24° Northeast 361 415 15,000  Level FlightAware ADS-B
Fri 06:22:12 AM 41.1930 -89.5780 18° North 358 412 15,000  Level FlightAware ADS-B
Fri 06:22:50 AM 41.2540 -89.5540 16° North 359 413 15,000  Level FlightAware ADS-B
Fri 06:23:26 AM 41.3110 -89.5340 15° North 359 413 15,000 -176 Level FlightAware ADS-B
Fri 06:23:58 AM 41.3640 -89.5140 16° North 352 405 14,800 -1,433 Descending FlightAware ADS-B
Fri 06:24:33 AM 41.4170 -89.4950 15° North 348 400 13,400 -2,417 Descending FlightAware ADS-B
Fri 06:25:10 AM 41.4740 -89.4740 15° North 344 396 11,900 -2,206 Descending FlightAware ADS-B
Fri 06:25:41 AM 41.5220 -89.4560 16° North 344 396 10,900 -1,522 Descending FlightAware ADS-B
Fri 06:26:17 AM 41.5750 -89.4360 16° North 319 367 10,200 -1,000 Descending FlightAware ADS-B
Fri 06:26:41 AM 41.6090 -89.4230 16° North 303 349 9,900 -1,091 Descending FlightAware ADS-B
Fri 06:27:01 AM 41.6360 -89.4130 15° North 300 345 9,400 -1,463 Descending FlightAware ADS-B
Fri 06:27:22 AM 41.6640 -89.4030 15° North 298 343 8,900 -1,317 Descending FlightAware ADS-B
Fri 06:27:42 AM 41.6910 -89.3920 17° North 295 339 8,500 -1,050 Descending FlightAware ADS-B
Fri 06:28:02 AM 41.7170 -89.3830 14° North 293 337 8,200 -955 Descending FlightAware ADS-B
Fri 06:28:26 AM 41.7490 -89.3710 16° North 294 338 7,800 -1,256 Descending FlightAware ADS-B
Fri 06:28:45 AM 41.7720 -89.3620 16° North 290 334 7,300 -2,154 Descending FlightAware ADS-B
Fri 06:29:05 AM 41.7980 -89.3520 16° North 287 330 6,400 -2,727 Descending FlightAware ADS-B
Fri 06:29:29 AM 41.8300 -89.3410 14° North 283 326 5,300 -2,634 Descending FlightAware ADS-B
Fri 06:29:46 AM 41.8510 -89.3330 16° North 281 323 4,600 -1,610 Descending FlightAware ADS-B
Fri 06:30:10 AM 41.8820 -89.3210 16° North 279 321 4,200 -818 Descending FlightAware ADS-B
Fri 06:30:30 AM 41.9060 -89.3120 16° North 272 313 4,000 -273 Descending FlightAware ADS-B
Fri 06:30:54 AM 41.9340 -89.3010 16° North 254 292 4,000 -409 Level FlightAware ADS-B
Fri 06:31:14 AM 41.9570 -89.2930 15° North 248 285 3,700 -1,024 Descending FlightAware ADS-B
Fri 06:31:35 AM 41.9800 -89.2840 16° North 242 278 3,300 -1,024 Descending FlightAware ADS-B
Fri 06:31:55 AM 42.0010 -89.2770 14° North 234 269 3,000 -732 Descending FlightAware ADS-B
Fri 06:32:16 AM 42.0230 -89.2690 15° North 231 266 2,800 -450 Descending FlightAware ADS-B
Fri 06:32:35 AM 42.0420 -89.2620 15° North 220 253 2,700 -409 Descending FlightAware ADS-B
Fri 06:33:00 AM 42.0660 -89.2530 16° North 200 230 2,500 -400 Descending FlightAware ADS-B
Fri 06:33:20 AM 42.0810 -89.2480 14° North 195 224 2,400 -188 Descending FlightAware ADS-B
Fri 06:33:32 AM 42.0930 -89.2430 17° North 193 222 2,400  Level FlightAware ADS-B
Fri 06:33:53 AM 42.1110 -89.2360 16° North 192 221 2,400 162 Level FlightAware ADS-B
Fri 06:34:09 AM 42.1240 -89.2310 16° North 175 201 2,500  Climbing FlightAware ADS-B
Fri 06:34:29 AM 42.1390 -89.2250 17° North 141 162 2,400 -158 Descending FlightAware ADS-B
Fri 06:34:47 AM 42.1490 -89.2210 17° North 128 147 2,400  Level FlightAware ADS-B
Fri 06:34:58 AM 42.1550 -89.2160 32° Northeast 140 161 2,400 -316 Level FlightAware ADS-B
Fri 06:35:06 AM 42.1590 -89.2120 37° Northeast 150 173 2,300 -1,000 Descending FlightAware ADS-B
Fri 06:35:10 AM 42.1600 -89.2080 71° East 153 176 2,200 -889 Descending FlightAware ADS-B
Fri 06:35:33 AM 42.1670 -89.1880 65° Northeast 156 180 1,900 -837 Descending FlightAware ADS-B
Fri 06:35:53 AM 42.1730 -89.1700 66° East 153 176 1,600 -878 Descending FlightAware ADS-B
Fri 06:36:14 AM 42.1800 -89.1520 62° Northeast 144 166 1,300 -732 Descending FlightAware ADS-B
Fri 06:36:34 AM 42.1850 -89.1360 67° East 134 154 1,100 -600 Descending FlightAware ADS-B
Fri 06:36:54 AM 42.1900 -89.1210 66° East 128 147 900 -255 Descending FlightAware ADS-B
Fri 06:37:21 AM 42.1950 -89.1040 68° East 128 147 900  Level FlightAware ADS-B

Login

Don't have an account? Register now (free) for customized features, flight alerts, and more!